sensor_id;sensor_type;location;lat;lon;timestamp;pressure;altitude;pressure_sealevel;temperature;humidity
82951;BME280;72737;53.332;6.514;2024-02-23T00:01:31;97953.72;;;15.27;61.15
82951;BME280;72737;53.332;6.514;2024-02-23T00:03:56;97969.03;;;15.31;60.76
82951;BME280;72737;53.332;6.514;2024-02-23T00:06:22;97976.44;;;15.31;60.88
82951;BME280;72737;53.332;6.514;2024-02-23T00:08:53;97985.88;;;15.33;61.50
82951;BME280;72737;53.332;6.514;2024-02-23T00:11:20;97993.22;;;15.29;61.05
82951;BME280;72737;53.332;6.514;2024-02-23T00:13:46;98004.59;;;15.31;61.20
82951;BME280;72737;53.332;6.514;2024-02-23T00:16:12;97986.38;;;15.13;61.05
82951;BME280;72737;53.332;6.514;2024-02-23T00:18:37;98039.00;;;15.32;61.45
82951;BME280;72737;53.332;6.514;2024-02-23T00:21:03;98035.06;;;15.30;61.51
82951;BME280;72737;53.332;6.514;2024-02-23T00:23:29;98046.78;;;15.30;61.24
82951;BME280;72737;53.332;6.514;2024-02-23T00:25:54;98054.63;;;15.32;61.50
82951;BME280;72737;53.332;6.514;2024-02-23T00:28:20;98064.44;;;15.33;61.71
82951;BME280;72737;53.332;6.514;2024-02-23T00:30:45;98066.78;;;15.34;61.06
82951;BME280;72737;53.332;6.514;2024-02-23T00:33:10;98073.03;;;15.35;60.91
82951;BME280;72737;53.332;6.514;2024-02-23T00:35:36;98080.16;;;15.39;61.28
82951;BME280;72737;53.332;6.514;2024-02-23T00:38:01;98075.41;;;15.36;61.15
82951;BME280;72737;53.332;6.514;2024-02-23T00:40:27;98083.94;;;15.31;60.96
82951;BME280;72737;53.332;6.514;2024-02-23T00:42:52;98074.59;;;15.32;60.96
82951;BME280;72737;53.332;6.514;2024-02-23T00:45:18;98079.75;;;15.37;61.07
82951;BME280;72737;53.332;6.514;2024-02-23T00:47:44;98079.31;;;15.35;60.63
82951;BME280;72737;53.332;6.514;2024-02-23T00:50:11;98087.91;;;15.34;60.82
82951;BME280;72737;53.332;6.514;2024-02-23T00:52:37;98094.16;;;15.34;61.35
82951;BME280;72737;53.332;6.514;2024-02-23T00:55:02;98107.06;;;15.34;61.04
82951;BME280;72737;53.332;6.514;2024-02-23T00:57:28;98112.84;;;15.29;60.79
82951;BME280;72737;53.332;6.514;2024-02-23T00:59:58;98128.88;;;15.30;61.11
82951;BME280;72737;53.332;6.514;2024-02-23T01:02:23;98137.66;;;15.17;61.56
82951;BME280;72737;53.332;6.514;2024-02-23T01:04:49;98130.78;;;15.26;60.88
82951;BME280;72737;53.332;6.514;2024-02-23T01:07:15;98144.13;;;15.31;61.23
82951;BME280;72737;53.332;6.514;2024-02-23T01:09:40;98153.41;;;15.23;61.20
82951;BME280;72737;53.332;6.514;2024-02-23T01:12:06;98165.53;;;15.26;60.77
82951;BME280;72737;53.332;6.514;2024-02-23T01:14:31;98159.59;;;15.20;60.74
82951;BME280;72737;53.332;6.514;2024-02-23T01:16:57;98144.09;;;15.05;60.87
82951;BME280;72737;53.332;6.514;2024-02-23T01:19:22;98181.13;;;15.22;61.08
82951;BME280;72737;53.332;6.514;2024-02-23T01:21:49;98193.25;;;15.24;60.82
82951;BME280;72737;53.332;6.514;2024-02-23T01:24:20;98188.84;;;15.16;60.93
82951;BME280;72737;53.332;6.514;2024-02-23T01:26:46;98198.44;;;15.07;61.06
82951;BME280;72737;53.332;6.514;2024-02-23T01:29:11;98208.78;;;15.17;61.21
82951;BME280;72737;53.332;6.514;2024-02-23T01:31:37;98207.97;;;15.16;61.15
82951;BME280;72737;53.332;6.514;2024-02-23T01:34:03;98208.22;;;15.08;61.16
82951;BME280;72737;53.332;6.514;2024-02-23T01:36:28;98207.53;;;15.14;60.62
82951;BME280;72737;53.332;6.514;2024-02-23T01:38:54;98209.63;;;15.21;60.73
82951;BME280;72737;53.332;6.514;2024-02-23T01:41:20;98219.78;;;15.20;60.68
82951;BME280;72737;53.332;6.514;2024-02-23T01:43:45;98226.34;;;15.16;60.56
82951;BME280;72737;53.332;6.514;2024-02-23T01:46:12;98230.91;;;15.08;60.90
82951;BME280;72737;53.332;6.514;2024-02-23T01:48:37;98243.91;;;15.15;60.86
82951;BME280;72737;53.332;6.514;2024-02-23T01:51:03;98241.09;;;15.11;61.33
82951;BME280;72737;53.332;6.514;2024-02-23T01:53:29;98228.88;;;15.05;60.99
82951;BME280;72737;53.332;6.514;2024-02-23T01:55:55;98248.66;;;15.18;60.46
82951;BME280;72737;53.332;6.514;2024-02-23T01:58:22;98244.13;;;15.06;61.01
82951;BME280;72737;53.332;6.514;2024-02-23T02:00:47;98256.03;;;15.14;60.44
82951;BME280;72737;53.332;6.514;2024-02-23T02:03:14;98250.75;;;15.05;61.17
82951;BME280;72737;53.332;6.514;2024-02-23T02:05:39;98254.22;;;15.02;61.08
82951;BME280;72737;53.332;6.514;2024-02-23T02:08:05;98263.34;;;15.10;60.96
82951;BME280;72737;53.332;6.514;2024-02-23T02:10:30;98261.69;;;15.05;60.65
82951;BME280;72737;53.332;6.514;2024-02-23T02:13:04;98272.63;;;15.05;61.11
82951;BME280;72737;53.332;6.514;2024-02-23T02:15:30;98277.03;;;15.10;60.71
82951;BME280;72737;53.332;6.514;2024-02-23T02:17:57;98294.16;;;15.07;61.39
82951;BME280;72737;53.332;6.514;2024-02-23T02:20:24;98283.72;;;15.12;61.06
82951;BME280;72737;53.332;6.514;2024-02-23T02:22:51;98287.56;;;15.08;60.88
82951;BME280;72737;53.332;6.514;2024-02-23T02:25:18;98298.69;;;14.99;61.16
82951;BME280;72737;53.332;6.514;2024-02-23T02:27:46;98308.34;;;14.93;60.76
82951;BME280;72737;53.332;6.514;2024-02-23T02:30:12;98315.91;;;14.99;60.48
82951;BME280;72737;53.332;6.514;2024-02-23T02:32:37;98310.13;;;15.04;60.68
82951;BME280;72737;53.332;6.514;2024-02-23T02:35:03;98314.75;;;15.00;60.41
82951;BME280;72737;53.332;6.514;2024-02-23T02:37:29;98317.94;;;15.02;60.62
82951;BME280;72737;53.332;6.514;2024-02-23T02:39:54;98323.41;;;15.02;60.83
82951;BME280;72737;53.332;6.514;2024-02-23T02:42:19;98325.75;;;15.04;60.48
82951;BME280;72737;53.332;6.514;2024-02-23T02:44:45;98327.78;;;15.07;60.83
82951;BME280;72737;53.332;6.514;2024-02-23T02:47:10;98334.25;;;14.99;60.67
82951;BME280;72737;53.332;6.514;2024-02-23T02:49:36;98329.56;;;14.99;60.17
82951;BME280;72737;53.332;6.514;2024-02-23T02:52:01;98329.66;;;15.03;60.57
82951;BME280;72737;53.332;6.514;2024-02-23T02:54:26;98339.53;;;15.08;60.08
82951;BME280;72737;53.332;6.514;2024-02-23T02:56:53;98337.88;;;15.03;60.10
82951;BME280;72737;53.332;6.514;2024-02-23T02:59:20;98337.94;;;15.07;60.62
82951;BME280;72737;53.332;6.514;2024-02-23T03:01:45;98342.44;;;14.99;60.53
82951;BME280;72737;53.332;6.514;2024-02-23T03:04:12;98364.31;;;14.99;60.22
82951;BME280;72737;53.332;6.514;2024-02-23T03:06:37;98355.25;;;14.95;60.88
82951;BME280;72737;53.332;6.514;2024-02-23T03:09:03;98363.91;;;14.97;60.78
82951;BME280;72737;53.332;6.514;2024-02-23T03:11:28;98360.88;;;15.02;60.08
82951;BME280;72737;53.332;6.514;2024-02-23T03:13:53;98357.00;;;15.03;60.47
82951;BME280;72737;53.332;6.514;2024-02-23T03:16:21;98364.31;;;14.99;59.93
82951;BME280;72737;53.332;6.514;2024-02-23T03:18:48;98366.41;;;14.86;60.28
82951;BME280;72737;53.332;6.514;2024-02-23T03:21:14;98370.38;;;14.89;60.44
82951;BME280;72737;53.332;6.514;2024-02-23T03:23:40;98377.06;;;14.91;60.39
82951;BME280;72737;53.332;6.514;2024-02-23T03:26:07;98384.03;;;14.89;60.78
82951;BME280;72737;53.332;6.514;2024-02-23T03:28:32;98392.75;;;14.94;60.56
82951;BME280;72737;53.332;6.514;2024-02-23T03:30:59;98383.28;;;14.88;60.12
82951;BME280;72737;53.332;6.514;2024-02-23T03:33:25;98397.72;;;14.89;60.13
82951;BME280;72737;53.332;6.514;2024-02-23T03:35:52;98399.31;;;14.90;60.66
82951;BME280;72737;53.332;6.514;2024-02-23T03:38:18;98405.50;;;14.87;60.81
82951;BME280;72737;53.332;6.514;2024-02-23T03:40:43;98405.22;;;14.92;59.97
82951;BME280;72737;53.332;6.514;2024-02-23T03:43:09;98401.75;;;14.95;60.54
82951;BME280;72737;53.332;6.514;2024-02-23T03:45:34;98416.28;;;14.99;59.95
82951;BME280;72737;53.332;6.514;2024-02-23T03:48:00;98422.50;;;14.96;60.64
82951;BME280;72737;53.332;6.514;2024-02-23T03:50:27;98411.47;;;14.92;60.52
82951;BME280;72737;53.332;6.514;2024-02-23T03:52:53;98414.00;;;15.01;59.80
82951;BME280;72737;53.332;6.514;2024-02-23T03:55:18;98423.28;;;14.96;59.96
82951;BME280;72737;53.332;6.514;2024-02-23T03:57:43;98418.69;;;15.00;60.06
82951;BME280;72737;53.332;6.514;2024-02-23T04:00:09;98429.63;;;15.00;59.60
82951;BME280;72737;53.332;6.514;2024-02-23T04:02:35;98412.28;;;14.93;60.27
82951;BME280;72737;53.332;6.514;2024-02-23T04:05:00;98437.41;;;14.98;59.79
82951;BME280;72737;53.332;6.514;2024-02-23T04:07:25;98429.47;;;14.93;59.93
82951;BME280;72737;53.332;6.514;2024-02-23T04:09:51;98445.16;;;14.96;60.21
82951;BME280;72737;53.332;6.514;2024-02-23T04:12:21;98443.56;;;14.95;59.90
82951;BME280;72737;53.332;6.514;2024-02-23T04:14:46;98457.97;;;14.92;60.13
82951;BME280;72737;53.332;6.514;2024-02-23T04:17:12;98464.50;;;14.88;59.94
82951;BME280;72737;53.332;6.514;2024-02-23T04:19:37;98460.25;;;14.90;60.15
82951;BME280;72737;53.332;6.514;2024-02-23T04:22:03;98456.72;;;14.90;59.57
82951;BME280;72737;53.332;6.514;2024-02-23T04:24:29;98455.34;;;14.80;59.57
82951;BME280;72737;53.332;6.514;2024-02-23T04:26:54;98473.84;;;14.87;59.80
82951;BME280;72737;53.332;6.514;2024-02-23T04:29:20;98472.72;;;14.88;59.61
82951;BME280;72737;53.332;6.514;2024-02-23T04:31:45;98486.38;;;14.88;59.90
82951;BME280;72737;53.332;6.514;2024-02-23T04:34:11;98494.59;;;14.88;59.65
82951;BME280;72737;53.332;6.514;2024-02-23T04:36:36;98486.94;;;14.78;59.92
82951;BME280;72737;53.332;6.514;2024-02-23T04:39:01;98500.41;;;14.86;59.68
82951;BME280;72737;53.332;6.514;2024-02-23T04:41:28;98495.66;;;14.83;59.81
82951;BME280;72737;53.332;6.514;2024-02-23T04:43:53;98507.47;;;14.87;59.93
82951;BME280;72737;53.332;6.514;2024-02-23T04:46:23;98507.47;;;14.87;59.87
82951;BME280;72737;53.332;6.514;2024-02-23T04:48:49;98506.75;;;14.90;59.89
82951;BME280;72737;53.332;6.514;2024-02-23T04:51:14;98519.19;;;14.88;59.76
82951;BME280;72737;53.332;6.514;2024-02-23T04:53:39;98527.66;;;14.83;59.58
82951;BME280;72737;53.332;6.514;2024-02-23T04:56:05;98526.22;;;14.89;60.07
82951;BME280;72737;53.332;6.514;2024-02-23T04:58:31;98533.66;;;14.88;59.85
82951;BME280;72737;53.332;6.514;2024-02-23T05:00:56;98545.03;;;14.90;60.09
82951;BME280;72737;53.332;6.514;2024-02-23T05:03:22;98529.22;;;14.84;60.03
82951;BME280;72737;53.332;6.514;2024-02-23T05:05:47;98549.00;;;14.93;60.10
82951;BME280;72737;53.332;6.514;2024-02-23T05:08:13;98539.13;;;14.88;59.68
82951;BME280;72737;53.332;6.514;2024-02-23T05:10:38;98539.13;;;14.88;59.72
82951;BME280;72737;53.332;6.514;2024-02-23T05:13:04;98545.38;;;14.89;59.65
82951;BME280;72737;53.332;6.514;2024-02-23T05:15:30;98546.53;;;14.88;59.40
82951;BME280;72737;53.332;6.514;2024-02-23T05:17:55;98555.81;;;14.83;59.57
82951;BME280;72737;53.332;6.514;2024-02-23T05:20:20;98533.84;;;14.80;59.77
82951;BME280;72737;53.332;6.514;2024-02-23T05:22:46;98556.56;;;14.84;60.13
82951;BME280;72737;53.332;6.514;2024-02-23T05:25:11;98561.00;;;14.88;59.90
82951;BME280;72737;53.332;6.514;2024-02-23T05:27:37;98558.63;;;14.87;59.48
82951;BME280;72737;53.332;6.514;2024-02-23T05:30:02;98548.47;;;14.72;59.94
82951;BME280;72737;53.332;6.514;2024-02-23T05:32:29;98566.22;;;14.78;59.93
82951;BME280;72737;53.332;6.514;2024-02-23T05:34:54;98560.47;;;14.83;59.83
82951;BME280;72737;53.332;6.514;2024-02-23T05:37:21;98562.84;;;14.84;59.72
82951;BME280;72737;53.332;6.514;2024-02-23T05:39:47;98553.06;;;14.68;59.45
82951;BME280;72737;53.332;6.514;2024-02-23T05:42:12;98572.91;;;14.80;59.64
82951;BME280;72737;53.332;6.514;2024-02-23T05:44:38;98572.09;;;14.80;59.86
82951;BME280;72737;53.332;6.514;2024-02-23T05:47:04;98574.50;;;14.81;60.06
82951;BME280;72737;53.332;6.514;2024-02-23T05:49:30;98579.16;;;14.81;59.80
82951;BME280;72737;53.332;6.514;2024-02-23T05:51:55;98568.59;;;14.79;59.96
82951;BME280;72737;53.332;6.514;2024-02-23T05:54:21;98571.69;;;14.78;59.86
82951;BME280;72737;53.332;6.514;2024-02-23T05:56:46;98572.81;;;14.77;59.67
82951;BME280;72737;53.332;6.514;2024-02-23T05:59:12;98573.63;;;14.77;60.31
82951;BME280;72737;53.332;6.514;2024-02-23T06:01:37;98569.47;;;14.68;59.99
82951;BME280;72737;53.332;6.514;2024-02-23T06:04:03;98578.97;;;14.74;60.14
82951;BME280;72737;53.332;6.514;2024-02-23T06:06:29;98585.44;;;14.81;60.18
82951;BME280;72737;53.332;6.514;2024-02-23T06:08:55;98591.88;;;14.89;61.11
82951;BME280;72737;53.332;6.514;2024-02-23T06:11:21;98598.13;;;14.89;59.98
82951;BME280;72737;53.332;6.514;2024-02-23T06:13:47;98587.63;;;14.76;60.65
82951;BME280;72737;53.332;6.514;2024-02-23T06:16:13;98593.72;;;14.85;60.65
82951;BME280;72737;53.332;6.514;2024-02-23T06:18:39;98596.03;;;14.83;59.98
82951;BME280;72737;53.332;6.514;2024-02-23T06:21:18;98593.91;;;14.76;60.05
82951;BME280;72737;53.332;6.514;2024-02-23T06:23:44;98587.63;;;14.76;60.02
82951;BME280;72737;53.332;6.514;2024-02-23T06:26:10;98604.91;;;14.80;60.10
82951;BME280;72737;53.332;6.514;2024-02-23T06:28:36;98606.50;;;14.81;60.34
82951;BME280;72737;53.332;6.514;2024-02-23T06:31:04;98593.81;;;14.73;60.43
82951;BME280;72737;53.332;6.514;2024-02-23T06:33:30;98585.50;;;14.69;59.93
82951;BME280;72737;53.332;6.514;2024-02-23T06:35:57;98605.19;;;14.75;59.91
82951;BME280;72737;53.332;6.514;2024-02-23T06:38:22;98607.03;;;14.71;59.96
82951;BME280;72737;53.332;6.514;2024-02-23T06:40:48;98611.53;;;14.79;59.49
82951;BME280;72737;53.332;6.514;2024-02-23T06:43:13;98614.97;;;14.76;59.39
82951;BME280;72737;53.332;6.514;2024-02-23T06:45:39;98618.06;;;14.74;59.56
82951;BME280;72737;53.332;6.514;2024-02-23T06:48:05;98621.25;;;14.76;59.36
82951;BME280;72737;53.332;6.514;2024-02-23T06:50:30;98625.19;;;14.79;59.24
82951;BME280;72737;53.332;6.514;2024-02-23T06:52:56;98622.63;;;14.70;59.33
82951;BME280;72737;53.332;6.514;2024-02-23T06:55:22;98615.69;;;14.73;59.50
82951;BME280;72737;53.332;6.514;2024-02-23T06:57:48;98628.66;;;14.76;59.09
82951;BME280;72737;53.332;6.514;2024-02-23T07:00:15;98642.41;;;14.79;58.92
82951;BME280;72737;53.332;6.514;2024-02-23T07:02:41;98633.84;;;14.81;58.12
82951;BME280;72737;53.332;6.514;2024-02-23T07:05:08;98632.91;;;14.73;57.82
82951;BME280;72737;53.332;6.514;2024-02-23T07:07:34;98642.78;;;14.78;57.41
82951;BME280;72737;53.332;6.514;2024-02-23T07:10:01;98613.00;;;14.60;57.76
82951;BME280;72737;53.332;6.514;2024-02-23T07:12:28;98645.50;;;14.78;57.33
82951;BME280;72737;53.332;6.514;2024-02-23T07:14:54;98640.97;;;14.70;58.00
82951;BME280;72737;53.332;6.514;2024-02-23T07:17:20;98632.09;;;14.73;57.83
82951;BME280;72737;53.332;6.514;2024-02-23T07:19:45;98623.06;;;14.56;57.94
82951;BME280;72737;53.332;6.514;2024-02-23T07:22:11;98651.91;;;14.70;57.19
82951;BME280;72737;53.332;6.514;2024-02-23T07:24:41;98645.03;;;14.60;57.94
82951;BME280;72737;53.332;6.514;2024-02-23T07:27:07;98646.03;;;14.68;57.98
82951;BME280;72737;53.332;6.514;2024-02-23T07:29:32;98667.00;;;14.64;57.40
82951;BME280;72737;53.332;6.514;2024-02-23T07:31:58;98663.19;;;14.52;56.16
82951;BME280;72737;53.332;6.514;2024-02-23T07:34:23;98667.56;;;14.29;56.01
82951;BME280;72737;53.332;6.514;2024-02-23T07:36:51;98677.66;;;14.13;56.13
82951;BME280;72737;53.332;6.514;2024-02-23T07:39:17;98703.53;;;14.31;55.11
82951;BME280;72737;53.332;6.514;2024-02-23T07:41:42;98682.66;;;14.51;54.93
82951;BME280;72737;53.332;6.514;2024-02-23T07:44:08;98686.38;;;14.58;54.46
82951;BME280;72737;53.332;6.514;2024-02-23T07:46:36;98670.38;;;14.45;54.31
82951;BME280;72737;53.332;6.514;2024-02-23T07:49:04;98689.75;;;14.40;53.88
82951;BME280;72737;53.332;6.514;2024-02-23T07:51:29;98690.94;;;14.54;53.53
82951;BME280;72737;53.332;6.514;2024-02-23T07:53:55;98664.56;;;14.34;53.45
82951;BME280;72737;53.332;6.514;2024-02-23T07:56:20;98679.81;;;14.47;53.21
82951;BME280;72737;53.332;6.514;2024-02-23T07:58:46;98690.94;;;14.54;52.88
82951;BME280;72737;53.332;6.514;2024-02-23T08:01:14;98689.25;;;14.50;52.82
82951;BME280;72737;53.332;6.514;2024-02-23T08:03:40;98689.50;;;14.45;52.20
82951;BME280;72737;53.332;6.514;2024-02-23T08:06:05;98683.47;;;14.39;52.66
82951;BME280;72737;53.332;6.514;2024-02-23T08:08:32;98694.28;;;14.36;51.89
82951;BME280;72737;53.332;6.514;2024-02-23T08:11:04;98700.00;;;14.43;51.89
82951;BME280;72737;53.332;6.514;2024-02-23T08:13:30;98685.00;;;14.37;52.42
82951;BME280;72737;53.332;6.514;2024-02-23T08:15:59;98693.84;;;14.34;52.15
82951;BME280;72737;53.332;6.514;2024-02-23T08:18:25;98698.22;;;14.10;52.16
82951;BME280;72737;53.332;6.514;2024-02-23T08:20:51;98707.56;;;14.09;53.09
82951;BME280;72737;53.332;6.514;2024-02-23T08:23:23;98703.47;;;14.03;53.14
82951;BME280;72737;53.332;6.514;2024-02-23T08:25:58;98714.94;;;14.21;52.76
82951;BME280;72737;53.332;6.514;2024-02-23T08:28:25;98685.75;;;13.85;53.04
82951;BME280;72737;53.332;6.514;2024-02-23T08:30:55;98724.66;;;14.06;53.14
82951;BME280;72737;53.332;6.514;2024-02-23T08:33:21;98669.75;;;13.71;54.10
82951;BME280;72737;53.332;6.514;2024-02-23T08:35:47;98706.19;;;14.03;54.20
82951;BME280;72737;53.332;6.514;2024-02-23T08:38:14;98706.81;;;13.97;54.06
82951;BME280;72737;53.332;6.514;2024-02-23T08:40:48;98705.78;;;14.01;53.93
82951;BME280;72737;53.332;6.514;2024-02-23T08:43:15;98703.28;;;13.96;54.64
82951;BME280;72737;53.332;6.514;2024-02-23T08:45:40;98705.66;;;13.98;54.59
82951;BME280;72737;53.332;6.514;2024-02-23T08:48:08;98693.16;;;13.97;55.02
82951;BME280;72737;53.332;6.514;2024-02-23T08:50:34;98702.09;;;14.09;54.36
82951;BME280;72737;53.332;6.514;2024-02-23T08:52:59;98696.53;;;14.06;55.18
82951;BME280;72737;53.332;6.514;2024-02-23T08:55:25;98703.34;;;14.12;55.23
82951;BME280;72737;53.332;6.514;2024-02-23T08:57:51;98710.19;;;14.18;55.10
82951;BME280;72737;53.332;6.514;2024-02-23T09:00:17;98693.34;;;14.04;55.30
82951;BME280;72737;53.332;6.514;2024-02-23T09:02:51;98697.00;;;14.08;55.29
82951;BME280;72737;53.332;6.514;2024-02-23T09:05:19;98697.66;;;14.17;55.59
82951;BME280;72737;53.332;6.514;2024-02-23T09:07:46;98705.16;;;14.20;55.38
82951;BME280;72737;53.332;6.514;2024-02-23T09:10:12;98698.78;;;14.16;55.81
82951;BME280;72737;53.332;6.514;2024-02-23T09:12:37;98705.63;;;14.22;56.21
82951;BME280;72737;53.332;6.514;2024-02-23T09:15:03;98689.91;;;14.19;56.52
82951;BME280;72737;53.332;6.514;2024-02-23T09:17:30;98683.53;;;14.15;56.48
82951;BME280;72737;53.332;6.514;2024-02-23T09:19:56;98700.16;;;14.22;56.49
82951;BME280;72737;53.332;6.514;2024-02-23T09:22:28;98700.97;;;14.10;56.38
82951;BME280;72737;53.332;6.514;2024-02-23T09:24:55;98711.16;;;14.26;56.12
82951;BME280;72737;53.332;6.514;2024-02-23T09:27:22;98709.56;;;14.25;56.26
82951;BME280;72737;53.332;6.514;2024-02-23T09:30:05;98697.91;;;14.00;56.67
82951;BME280;72737;53.332;6.514;2024-02-23T09:32:45;98703.69;;;14.10;56.85
82951;BME280;72737;53.332;6.514;2024-02-23T09:35:12;98686.56;;;13.86;56.25
82951;BME280;72737;53.332;6.514;2024-02-23T09:37:44;98719.69;;;14.24;56.74
82951;BME280;72737;53.332;6.514;2024-02-23T09:40:12;98716.53;;;14.22;56.43
82951;BME280;72737;53.332;6.514;2024-02-23T09:42:39;98714.84;;;14.17;56.49
82951;BME280;72737;53.332;6.514;2024-02-23T09:45:06;98691.31;;;14.01;57.21
82951;BME280;72737;53.332;6.514;2024-02-23T09:47:56;98733.03;;;14.26;57.35
82951;BME280;72737;53.332;6.514;2024-02-23T09:50:31;98735.19;;;14.20;56.96
82951;BME280;72737;53.332;6.514;2024-02-23T09:53:01;98703.59;;;14.07;56.43
82951;BME280;72737;53.332;6.514;2024-02-23T09:55:42;98734.63;;;14.27;56.31
82951;BME280;72737;53.332;6.514;2024-02-23T09:58:08;98742.50;;;14.28;56.95
82951;BME280;72737;53.332;6.514;2024-02-23T10:00:36;98695.97;;;14.00;56.91
82951;BME280;72737;53.332;6.514;2024-02-23T10:03:04;98704.72;;;14.06;56.94
82951;BME280;72737;53.332;6.514;2024-02-23T10:05:31;98695.97;;;14.00;57.34
82951;BME280;72737;53.332;6.514;2024-02-23T10:07:58;98729.59;;;14.29;56.74
82951;BME280;72737;53.332;6.514;2024-02-23T10:10:35;98673.56;;;13.95;56.89
82951;BME280;72737;53.332;6.514;2024-02-23T10:13:06;98708.59;;;14.17;57.05
82951;BME280;72737;53.332;6.514;2024-02-23T10:15:35;98715.50;;;14.27;57.09
82951;BME280;72737;53.332;6.514;2024-02-23T10:18:00;98712.88;;;14.30;56.87
82951;BME280;72737;53.332;6.514;2024-02-23T10:20:26;98717.66;;;14.33;57.21
82951;BME280;72737;53.332;6.514;2024-02-23T10:22:51;98717.44;;;14.26;57.78
82951;BME280;72737;53.332;6.514;2024-02-23T10:25:19;98720.38;;;14.33;57.41
82951;BME280;72737;53.332;6.514;2024-02-23T10:27:45;98662.25;;;14.08;57.15
82951;BME280;72737;53.332;6.514;2024-02-23T10:30:13;98720.94;;;14.39;56.62
82951;BME280;72737;53.332;6.514;2024-02-23T10:32:42;98696.06;;;14.16;56.35
82951;BME280;72737;53.332;6.514;2024-02-23T10:35:14;98730.31;;;14.38;55.94
82951;BME280;72737;53.332;6.514;2024-02-23T10:37:48;98692.88;;;14.14;56.46
82951;BME280;72737;53.332;6.514;2024-02-23T10:40:21;98734.47;;;14.35;55.33
82951;BME280;72737;53.332;6.514;2024-02-23T10:42:51;98744.31;;;14.36;55.63
82951;BME280;72737;53.332;6.514;2024-02-23T10:45:28;98736.91;;;14.25;54.42
82951;BME280;72737;53.332;6.514;2024-02-23T10:47:55;98718.38;;;14.06;54.39
82951;BME280;72737;53.332;6.514;2024-02-23T10:50:23;98722.47;;;14.12;54.09
82951;BME280;72737;53.332;6.514;2024-02-23T10:52:50;98690.75;;;13.95;54.13
82951;BME280;72737;53.332;6.514;2024-02-23T10:55:24;98694.53;;;13.91;54.05
82951;BME280;72737;53.332;6.514;2024-02-23T10:57:51;98701.53;;;14.04;54.02
82951;BME280;72737;53.332;6.514;2024-02-23T11:00:21;98732.28;;;14.13;53.63
82951;BME280;72737;53.332;6.514;2024-02-23T11:02:51;98750.44;;;14.33;53.45
82951;BME280;72737;53.332;6.514;2024-02-23T11:05:33;98731.88;;;14.27;53.86
82951;BME280;72737;53.332;6.514;2024-02-23T11:08:05;98717.03;;;14.00;53.16
82951;BME280;72737;53.332;6.514;2024-02-23T11:10:42;98752.28;;;14.17;52.62
82951;BME280;72737;53.332;6.514;2024-02-23T11:13:09;98718.06;;;13.83;52.04
82951;BME280;72737;53.332;6.514;2024-02-23T11:15:41;98757.19;;;13.99;52.39
82951;BME280;72737;53.332;6.514;2024-02-23T11:18:29;98751.16;;;14.06;52.97
82951;BME280;72737;53.332;6.514;2024-02-23T11:21:14;98771.19;;;14.10;52.56
82951;BME280;72737;53.332;6.514;2024-02-23T11:23:48;98708.53;;;13.65;52.69
82951;BME280;72737;53.332;6.514;2024-02-23T11:26:40;98761.84;;;13.99;53.18
82951;BME280;72737;53.332;6.514;2024-02-23T11:29:11;98709.91;;;13.71;52.70
82951;BME280;72737;53.332;6.514;2024-02-23T11:31:44;98730.47;;;13.81;52.20
82951;BME280;72737;53.332;6.514;2024-02-23T11:34:22;98763.44;;;14.00;53.04
82951;BME280;72737;53.332;6.514;2024-02-23T11:36:50;98741.63;;;13.88;53.12
82951;BME280;72737;53.332;6.514;2024-02-23T11:39:17;98704.56;;;13.62;53.53
82951;BME280;72737;53.332;6.514;2024-02-23T11:41:42;98779.16;;;14.03;53.82
82951;BME280;72737;53.332;6.514;2024-02-23T11:44:08;98731.28;;;13.81;53.63
82951;BME280;72737;53.332;6.514;2024-02-23T11:46:34;98752.97;;;14.14;53.58
82951;BME280;72737;53.332;6.514;2024-02-23T11:49:01;98752.97;;;14.14;53.50
82951;BME280;72737;53.332;6.514;2024-02-23T11:51:27;98710.47;;;13.77;53.32
82951;BME280;72737;53.332;6.514;2024-02-23T11:53:57;98720.91;;;13.74;53.47
82951;BME280;72737;53.332;6.514;2024-02-23T11:56:24;98725.69;;;13.90;53.25
82951;BME280;72737;53.332;6.514;2024-02-23T11:58:51;98778.25;;;13.99;53.54
82951;BME280;72737;53.332;6.514;2024-02-23T12:01:18;98754.22;;;14.04;53.56
82951;BME280;72737;53.332;6.514;2024-02-23T12:03:43;98745.03;;;13.85;54.68
82951;BME280;72737;53.332;6.514;2024-02-23T12:06:10;98719.56;;;13.68;54.08
82951;BME280;72737;53.332;6.514;2024-02-23T12:08:35;98734.00;;;13.81;53.55
82951;BME280;72737;53.332;6.514;2024-02-23T12:11:08;98744.75;;;14.26;55.02
82951;BME280;72737;53.332;6.514;2024-02-23T12:13:38;98769.28;;;14.63;55.67
82951;BME280;72737;53.332;6.514;2024-02-23T12:16:04;98753.66;;;14.91;54.98
82951;BME280;72737;53.332;6.514;2024-02-23T12:18:36;98753.38;;;15.08;55.46
82951;BME280;72737;53.332;6.514;2024-02-23T12:21:10;98745.28;;;15.27;55.61
82951;BME280;72737;53.332;6.514;2024-02-23T12:23:41;98743.25;;;15.40;56.17
82951;BME280;72737;53.332;6.514;2024-02-23T12:26:19;98744.78;;;15.53;55.67
82951;BME280;72737;53.332;6.514;2024-02-23T12:29:17;98755.75;;;15.69;55.97
82951;BME280;72737;53.332;6.514;2024-02-23T12:31:50;98728.50;;;15.44;55.61
82951;BME280;72737;53.332;6.514;2024-02-23T12:34:16;98729.53;;;15.24;55.31
82951;BME280;72737;53.332;6.514;2024-02-23T12:36:43;98739.38;;;14.82;54.13
82951;BME280;72737;53.332;6.514;2024-02-23T12:39:08;98755.19;;;14.88;53.63
82951;BME280;72737;53.332;6.514;2024-02-23T12:41:34;98746.19;;;14.88;54.21
82951;BME280;72737;53.332;6.514;2024-02-23T12:44:00;98762.88;;;14.71;53.04
82951;BME280;72737;53.332;6.514;2024-02-23T12:46:35;98726.69;;;14.62;53.44
82951;BME280;72737;53.332;6.514;2024-02-23T12:52:24;98725.72;;;14.42;53.35
82951;BME280;72737;53.332;6.514;2024-02-23T12:55:11;98670.69;;;14.15;52.46
82951;BME280;72737;53.332;6.514;2024-02-23T13:01:50;98747.19;;;14.55;52.54
82951;BME280;72737;53.332;6.514;2024-02-23T13:04:28;98753.81;;;14.54;52.08
82951;BME280;72737;53.332;6.514;2024-02-23T13:07:17;98765.69;;;14.46;52.22
82951;BME280;72737;53.332;6.514;2024-02-23T13:13:08;98761.69;;;14.44;52.08